createdAt,value
2019-03-02T00:00:39.633Z,8.57
2019-03-02T00:03:08.543Z,8.73
2019-03-02T00:05:37.092Z,8.10
2019-03-02T00:08:05.647Z,8.33
2019-03-02T00:10:34.583Z,8.90
2019-03-02T00:13:03.991Z,7.50
2019-03-02T00:15:33.650Z,6.43
2019-03-02T00:18:02.780Z,6.83
2019-03-02T00:20:31.988Z,7.20
2019-03-02T00:23:01.615Z,6.30
2019-03-02T00:25:34.107Z,7.47
2019-03-02T00:28:01.235Z,7.90
2019-03-02T00:30:30.011Z,8.10
2019-03-02T00:32:58.558Z,8.80
2019-03-02T00:35:27.328Z,7.10
2019-03-02T00:37:55.897Z,8.07
2019-03-02T00:40:27.255Z,7.10
2019-03-02T00:42:55.360Z,6.10
2019-03-02T00:45:24.171Z,9.10
2019-03-02T00:47:53.101Z,8.60
2019-03-02T00:50:21.973Z,8.10
2019-03-02T00:52:50.527Z,6.57
2019-03-02T00:55:19.747Z,7.67
2019-03-02T00:57:50.728Z,8.40
2019-03-02T01:00:19.760Z,8.23
2019-03-02T01:02:48.392Z,6.83
2019-03-02T01:05:17.141Z,7.87
2019-03-02T01:07:46.000Z,7.03
2019-03-02T01:10:18.968Z,7.80
2019-03-02T01:12:47.184Z,7.90
2019-03-02T01:15:17.007Z,7.37
2019-03-02T01:17:45.627Z,8.03
2019-03-02T01:20:15.544Z,7.10
2019-03-02T01:22:44.180Z,5.93
2019-03-02T01:25:15.426Z,7.27
2019-03-02T01:27:44.328Z,7.20
2019-03-02T01:30:15.676Z,6.50
2019-03-02T01:32:44.242Z,8.07
2019-03-02T01:35:13.075Z,7.63
2019-03-02T01:37:43.924Z,7.73
2019-03-02T01:40:16.555Z,7.20
2019-03-02T01:42:45.123Z,6.90
2019-03-02T01:45:15.846Z,7.10
2019-03-02T01:47:50.505Z,8.00
2019-03-02T01:50:16.828Z,7.20
2019-03-02T01:52:45.726Z,7.50
2019-03-02T01:55:16.451Z,8.73
2019-03-02T01:57:45.357Z,7.27
2019-03-02T02:00:21.627Z,7.43
2019-03-02T02:02:50.240Z,7.40
2019-03-02T02:05:19.183Z,8.07
2019-03-02T02:07:53.691Z,7.10
2019-03-02T02:10:18.834Z,9.33
2019-03-02T02:12:47.714Z,7.27
2019-03-02T02:15:22.143Z,7.83
2019-03-02T02:17:53.006Z,7.53
2019-03-02T02:20:21.751Z,6.43
2019-03-02T02:22:50.712Z,7.57
2019-03-02T02:25:21.180Z,7.50
2019-03-02T02:27:49.957Z,8.83
2019-03-02T02:30:27.672Z,9.07
2019-03-02T02:33:03.714Z,9.80
2019-03-02T02:35:27.887Z,8.57
2019-03-02T02:37:56.547Z,8.30
2019-03-02T02:40:25.728Z,9.50
2019-03-02T02:42:54.287Z,9.50
2019-03-02T02:45:23.184Z,10.83
2019-03-02T02:47:54.325Z,10.27
2019-03-02T02:50:28.404Z,9.67
2019-03-02T02:52:53.603Z,10.40
2019-03-02T02:55:22.485Z,11.90
2019-03-02T02:57:51.483Z,10.60
2019-03-02T03:00:22.394Z,11.53
2019-03-02T03:02:51.327Z,10.60
2019-03-02T03:05:20.412Z,13.90
2019-03-02T03:07:53.305Z,11.23
2019-03-02T03:10:36.033Z,11.53
2019-03-02T03:13:05.509Z,10.67
2019-03-02T03:15:41.537Z,11.90
2019-03-02T03:18:12.775Z,12.53
2019-03-02T03:20:47.758Z,11.87
2019-03-02T03:23:12.752Z,12.03
2019-03-02T03:25:41.325Z,11.63
2019-03-02T03:28:10.123Z,13.50
2019-03-02T03:30:39.921Z,14.13
2019-03-02T03:33:09.146Z,13.13
2019-03-02T03:35:37.703Z,11.70
2019-03-02T03:38:06.908Z,13.70
2019-03-02T03:40:35.549Z,11.77
2019-03-02T03:43:04.830Z,15.40
2019-03-02T03:45:42.175Z,13.60
2019-03-02T03:48:04.066Z,15.00
2019-03-02T03:50:32.622Z,17.13
2019-03-02T03:53:01.899Z,13.90
2019-03-02T03:55:30.466Z,15.93
2019-03-02T03:58:00.679Z,13.40
2019-03-02T04:00:34.216Z,15.30
2019-03-02T04:03:00.127Z,15.63
2019-03-02T04:05:28.759Z,8.90
2019-03-02T04:07:58.009Z,13.87
2019-03-02T04:10:27.941Z,14.03
2019-03-02T04:13:03.879Z,15.90
2019-03-02T04:15:27.814Z,16.00
2019-03-02T04:17:56.620Z,15.93
2019-03-02T04:20:34.096Z,16.43
2019-03-02T04:23:06.402Z,15.87
2019-03-02T04:25:36.597Z,14.03
2019-03-02T04:28:05.371Z,16.77
2019-03-02T04:30:34.013Z,17.90
2019-03-02T04:33:05.995Z,17.00
2019-03-02T04:35:33.780Z,16.70
2019-03-02T04:38:03.454Z,18.57
2019-03-02T04:40:32.029Z,17.20
2019-03-02T04:43:00.816Z,16.97
2019-03-02T04:45:29.371Z,19.97
2019-03-02T04:47:59.892Z,18.60
2019-03-02T04:50:28.504Z,17.57
2019-03-02T04:52:57.192Z,17.50
2019-03-02T04:55:25.763Z,19.67
2019-03-02T04:57:54.778Z,18.90
2019-03-02T05:00:23.325Z,19.20
2019-03-02T05:02:55.155Z,19.97
2019-03-02T05:05:22.660Z,21.77
2019-03-02T05:07:51.232Z,20.30
2019-03-02T05:10:20.062Z,19.90
2019-03-02T05:12:49.681Z,21.80
2019-03-02T05:15:19.250Z,20.20
2019-03-02T05:17:47.815Z,20.60
2019-03-02T05:20:16.618Z,20.67
2019-03-02T05:22:45.174Z,21.27
2019-03-02T05:25:15.629Z,19.57
2019-03-02T05:27:44.517Z,23.83
2019-03-02T05:30:15.583Z,21.50
2019-03-02T05:32:47.713Z,21.50
2019-03-02T05:35:15.384Z,22.53
2019-03-02T05:37:45.036Z,22.33
2019-03-02T05:40:14.772Z,22.63
2019-03-02T05:42:48.685Z,23.47
2019-03-02T05:45:15.259Z,21.70
2019-03-02T05:47:44.096Z,21.37
2019-03-02T05:50:16.905Z,21.47
2019-03-02T05:52:45.530Z,22.10
2019-03-02T05:55:18.173Z,20.20
2019-03-02T05:57:44.731Z,22.30
2019-03-02T06:00:17.096Z,23.23
2019-03-02T06:02:46.639Z,22.77
2019-03-02T06:05:15.701Z,23.60
2019-03-02T06:07:44.317Z,24.00
2019-03-02T06:10:14.715Z,24.17
2019-03-02T06:12:43.414Z,25.63
2019-03-02T06:15:14.519Z,22.30
2019-03-02T06:17:43.086Z,27.50
2019-03-02T06:20:14.997Z,24.60
2019-03-02T06:22:43.881Z,23.93
2019-03-02T06:25:20.521Z,28.80
2019-03-02T06:27:48.646Z,25.00
2019-03-02T06:30:21.799Z,24.17
2019-03-02T06:32:50.904Z,23.90
2019-03-02T06:35:19.794Z,24.53
2019-03-02T06:37:48.359Z,21.67
2019-03-02T06:40:19.732Z,23.73
2019-03-02T06:42:47.990Z,22.37
2019-03-02T06:45:18.429Z,24.30
2019-03-02T06:47:47.520Z,17.57
2019-03-02T06:50:17.217Z,22.23
2019-03-02T06:52:45.786Z,22.10
2019-03-02T06:55:15.577Z,20.33
2019-03-02T06:57:46.077Z,20.67
2019-03-02T07:00:17.096Z,19.23
2019-03-02T07:02:46.175Z,21.10
2019-03-02T07:05:15.075Z,21.30
2019-03-02T07:07:43.714Z,24.43
2019-03-02T07:10:23.201Z,18.37
2019-03-02T07:12:52.948Z,22.50
2019-03-02T07:15:22.323Z,22.00
2019-03-02T07:17:52.644Z,20.67
2019-03-02T07:20:27.409Z,20.13
2019-03-02T07:22:56.224Z,13.80
2019-03-02T07:25:24.955Z,21.50
2019-03-02T07:27:53.874Z,22.00
2019-03-02T07:30:22.621Z,20.10
2019-03-02T07:32:51.186Z,20.33
2019-03-02T07:35:20.596Z,20.23
2019-03-02T07:37:49.354Z,22.03
2019-03-02T07:40:18.557Z,22.90
2019-03-02T07:42:47.585Z,23.73
2019-03-02T07:45:18.854Z,18.40
2019-03-02T07:47:47.406Z,20.50
2019-03-02T07:50:17.223Z,21.47
2019-03-02T07:52:45.849Z,19.50
2019-03-02T07:55:19.116Z,20.13
2019-03-02T07:57:45.480Z,19.83
2019-03-02T08:00:17.268Z,19.30
2019-03-02T08:02:46.156Z,20.40
2019-03-02T08:05:15.375Z,21.33
2019-03-02T08:07:44.303Z,18.87
2019-03-02T08:10:14.100Z,18.40
2019-03-02T08:12:42.715Z,21.50
2019-03-02T08:15:20.170Z,19.10
2019-03-02T08:17:50.144Z,23.27
2019-03-02T08:20:20.702Z,18.77
2019-03-02T08:22:49.977Z,20.97
2019-03-02T08:25:18.603Z,20.80
2019-03-02T08:27:47.405Z,21.07
2019-03-02T08:30:18.119Z,22.17
2019-03-02T08:32:48.822Z,21.30
2019-03-02T08:35:17.950Z,19.60
2019-03-02T08:37:46.839Z,18.40
2019-03-02T08:40:19.283Z,17.07
2019-03-02T08:42:47.490Z,18.90
2019-03-02T08:45:22.119Z,20.30
2019-03-02T08:47:50.682Z,17.10
2019-03-02T08:50:20.529Z,19.47
2019-03-02T08:52:49.352Z,20.10
2019-03-02T08:55:20.333Z,19.77
2019-03-02T08:57:48.961Z,17.97
2019-03-02T09:00:25.188Z,20.10
2019-03-02T09:02:55.008Z,17.90
2019-03-02T09:05:42.806Z,17.90
2019-03-02T09:07:54.841Z,18.90
2019-03-02T09:10:23.687Z,19.33
2019-03-02T09:12:57.967Z,18.20
2019-03-02T09:15:30.038Z,18.00
2019-03-02T09:17:58.471Z,19.40
2019-03-02T09:20:27.595Z,20.20
2019-03-02T09:23:00.041Z,19.20
2019-03-02T09:25:28.103Z,20.73
2019-03-02T09:27:57.011Z,17.30
2019-03-02T09:30:25.742Z,18.67
2019-03-02T09:32:55.883Z,17.00
2019-03-02T09:35:24.783Z,18.23
2019-03-02T09:37:53.564Z,21.00
2019-03-02T09:40:24.752Z,18.67
2019-03-02T09:42:54.408Z,18.67
2019-03-02T09:45:23.355Z,17.40
2019-03-02T09:47:52.592Z,18.97
2019-03-02T09:50:22.684Z,19.60
2019-03-02T09:52:51.717Z,20.13
2019-03-02T09:55:20.876Z,18.07
2019-03-02T09:57:49.915Z,16.90
2019-03-02T10:00:26.127Z,23.03
2019-03-02T10:02:55.409Z,30.00
2019-03-02T10:05:26.030Z,17.40
2019-03-02T10:07:54.559Z,18.90
2019-03-02T10:10:25.194Z,17.90
2019-03-02T10:12:53.799Z,17.40
2019-03-02T10:15:27.868Z,17.97
2019-03-02T10:17:56.422Z,17.30
2019-03-02T10:20:25.653Z,15.07
2019-03-02T10:22:54.307Z,18.03
2019-03-02T10:25:26.424Z,18.83
2019-03-02T10:27:56.913Z,18.90
2019-03-02T10:30:25.886Z,18.60
2019-03-02T10:32:56.876Z,14.30
2019-03-02T10:35:25.989Z,14.90
2019-03-02T10:37:55.228Z,17.73
2019-03-02T10:40:23.862Z,18.03
2019-03-02T10:42:53.017Z,18.40
2019-03-02T10:45:22.727Z,15.47
2019-03-02T10:47:53.809Z,14.83
2019-03-02T10:50:26.681Z,16.97
2019-03-02T10:52:55.536Z,17.43
2019-03-02T10:55:24.758Z,18.07
2019-03-02T10:57:53.935Z,18.93
2019-03-02T11:00:29.736Z,14.40
2019-03-02T11:03:02.673Z,15.30
2019-03-02T11:05:42.515Z,16.20
2019-03-02T11:08:16.639Z,15.83
2019-03-02T11:11:02.813Z,15.63
2019-03-02T11:13:48.237Z,16.30
2019-03-02T11:16:19.650Z,18.00
2019-03-02T11:19:11.428Z,16.83
2019-03-02T11:21:40.507Z,15.10
2019-03-02T11:24:13.978Z,12.60
2019-03-02T11:26:44.307Z,14.80
2019-03-02T11:29:17.731Z,16.43
2019-03-02T11:32:04.583Z,17.10
2019-03-02T11:34:37.716Z,12.10
2019-03-02T11:37:10.871Z,15.97
2019-03-02T11:39:56.085Z,17.43
2019-03-02T11:42:26.495Z,17.83
2019-03-02T11:44:59.164Z,16.20
2019-03-02T11:47:32.997Z,15.93
2019-03-02T11:50:04.498Z,16.83
2019-03-02T11:52:40.833Z,18.17
2019-03-02T11:55:18.714Z,17.83
2019-03-02T11:57:49.221Z,17.60
2019-03-02T12:00:37.520Z,18.90
2019-03-02T12:03:18.342Z,18.30
2019-03-02T12:06:05.097Z,18.00
2019-03-02T12:08:48.282Z,15.90
2019-03-02T12:11:18.483Z,13.97
2019-03-02T12:14:00.393Z,14.50
2019-03-02T12:16:45.945Z,12.60
2019-03-02T12:19:22.356Z,13.30
2019-03-02T12:22:04.361Z,13.80
2019-03-02T12:24:54.791Z,15.20
2019-03-02T12:27:27.686Z,12.80
2019-03-02T12:30:03.823Z,12.73
2019-03-02T12:32:51.985Z,13.67
2019-03-02T12:35:25.517Z,13.37
2019-03-02T12:38:11.788Z,12.33
2019-03-02T12:40:42.970Z,14.47
2019-03-02T12:43:19.790Z,12.47
2019-03-02T12:45:53.225Z,12.90
2019-03-02T12:48:23.513Z,12.87
2019-03-02T12:51:02.696Z,12.40
2019-03-02T12:53:47.461Z,11.50
2019-03-02T12:56:20.547Z,11.73
2019-03-02T12:59:00.934Z,13.10
2019-03-02T13:01:45.392Z,15.63
2019-03-02T13:04:15.881Z,13.50
2019-03-02T13:06:46.414Z,13.17
2019-03-02T13:09:23.919Z,14.70
2019-03-02T13:11:54.117Z,14.03
2019-03-02T13:14:28.800Z,15.90
2019-03-02T13:17:02.808Z,13.53
2019-03-02T13:19:31.689Z,14.97
2019-03-02T13:22:11.087Z,15.13
2019-03-02T13:24:44.379Z,13.97
2019-03-02T13:27:32.876Z,14.50
2019-03-02T13:30:12.377Z,13.57
2019-03-02T13:32:57.855Z,14.33
2019-03-02T13:35:34.078Z,14.83
2019-03-02T13:38:16.419Z,15.07
2019-03-02T13:40:47.059Z,15.20
2019-03-02T13:43:28.568Z,16.00
2019-03-02T13:45:59.363Z,15.10
2019-03-02T13:48:33.897Z,13.80
2019-03-02T13:51:20.507Z,16.67
2019-03-02T13:54:07.058Z,15.33
2019-03-02T13:56:54.543Z,15.40
2019-03-02T13:59:30.931Z,15.07
2019-03-02T14:02:03.525Z,16.37
2019-03-02T14:04:39.568Z,15.50
2019-03-02T14:07:09.969Z,14.30
2019-03-02T14:09:56.894Z,16.93
2019-03-02T14:12:38.799Z,12.67
2019-03-02T14:15:33.378Z,13.93
2019-03-02T14:18:09.437Z,14.30
2019-03-02T14:20:39.888Z,14.57
2019-03-02T14:23:10.105Z,16.43
2019-03-02T14:25:45.861Z,14.50
2019-03-02T14:28:16.131Z,13.87
2019-03-02T14:30:46.988Z,14.63
2019-03-02T14:33:29.437Z,15.63
2019-03-02T14:36:01.977Z,16.53
2019-03-02T14:38:47.270Z,15.30
2019-03-02T14:41:28.600Z,15.67
2019-03-02T14:44:03.973Z,14.50
2019-03-02T14:46:34.552Z,14.53
2019-03-02T14:49:13.811Z,15.20
2019-03-02T14:51:44.125Z,14.13
2019-03-02T14:54:17.332Z,15.40
2019-03-02T14:56:54.721Z,14.77
2019-03-02T14:59:34.025Z,14.20
2019-03-02T15:02:07.679Z,14.20
2019-03-02T15:04:56.550Z,14.50
2019-03-02T15:07:33.125Z,14.60
2019-03-02T15:10:09.289Z,13.83
2019-03-02T15:12:52.341Z,13.73
2019-03-02T15:15:23.348Z,13.57
2019-03-02T15:17:53.874Z,14.37
2019-03-02T15:20:36.241Z,14.87
2019-03-02T15:23:13.835Z,14.43
2019-03-02T15:25:44.138Z,14.47
2019-03-02T15:28:29.019Z,14.10
2019-03-02T15:30:59.164Z,12.90
2019-03-02T15:33:37.551Z,14.93
2019-03-02T15:36:07.266Z,14.47
2019-03-02T15:38:53.619Z,13.40
2019-03-02T15:41:23.894Z,13.70
2019-03-02T15:44:06.993Z,14.33
2019-03-02T15:46:55.089Z,16.97
2019-03-02T15:49:25.617Z,18.30
2019-03-02T15:51:55.952Z,19.20
2019-03-02T15:54:29.009Z,18.00
2019-03-02T15:57:13.995Z,18.53
2019-03-02T15:59:44.736Z,16.83
2019-03-02T16:02:23.777Z,17.33
2019-03-02T16:05:11.188Z,17.23
2019-03-02T16:07:48.103Z,14.47
2019-03-02T16:10:18.457Z,16.43
2019-03-02T16:13:05.713Z,17.27
2019-03-02T16:15:52.091Z,14.90
2019-03-02T16:18:23.821Z,16.40
2019-03-02T16:20:54.513Z,16.53
2019-03-02T16:23:43.576Z,17.70
2019-03-02T16:26:31.220Z,17.67
2019-03-02T16:29:01.719Z,17.77
2019-03-02T16:31:41.278Z,18.50
2019-03-02T16:34:12.428Z,19.07
2019-03-02T16:36:42.928Z,17.53
2019-03-02T16:39:16.627Z,19.47
2019-03-02T16:42:03.249Z,20.00
2019-03-02T16:44:45.455Z,20.23
2019-03-02T16:47:19.381Z,18.30
2019-03-02T16:49:52.623Z,17.93
2019-03-02T16:52:42.977Z,19.13
2019-03-02T16:55:29.339Z,17.63
2019-03-02T16:58:18.280Z,18.90
2019-03-02T17:00:49.569Z,18.73
2019-03-02T17:03:32.668Z,18.20
2019-03-02T17:06:09.835Z,17.07
2019-03-02T17:08:47.046Z,15.97
2019-03-02T17:11:36.332Z,18.00
2019-03-02T17:14:09.224Z,16.47
2019-03-02T17:16:39.201Z,19.40
2019-03-02T17:19:29.237Z,20.07
2019-03-02T17:22:15.901Z,19.60
2019-03-02T17:24:52.263Z,18.63
2019-03-02T17:27:22.589Z,21.27
2019-03-02T17:29:56.423Z,21.10
2019-03-02T17:32:26.719Z,19.50
2019-03-02T17:34:57.281Z,20.07
2019-03-02T17:37:27.496Z,21.20
2019-03-02T17:40:01.167Z,22.43
2019-03-02T17:42:35.239Z,21.43
2019-03-02T17:45:06.533Z,21.67
2019-03-02T17:47:42.636Z,21.70
2019-03-02T17:50:29.842Z,23.50
2019-03-02T17:53:02.516Z,21.47
2019-03-02T17:55:35.705Z,19.80
2019-03-02T17:58:22.197Z,20.90
2019-03-02T18:00:56.972Z,19.20
2019-03-02T18:03:50.082Z,22.30
2019-03-02T18:06:20.477Z,20.40
2019-03-02T18:08:52.045Z,18.43
2019-03-02T18:11:38.671Z,19.20
2019-03-02T18:14:16.116Z,18.33
2019-03-02T18:17:03.121Z,20.23
2019-03-02T18:19:31.974Z,20.70
2019-03-02T18:22:00.548Z,21.17
2019-03-02T18:24:31.890Z,18.67
2019-03-02T18:27:01.038Z,19.20
2019-03-02T18:29:30.712Z,19.90
2019-03-02T18:31:59.424Z,20.40
2019-03-02T18:34:28.378Z,19.17
2019-03-02T18:36:57.003Z,18.50
2019-03-02T18:39:26.676Z,18.67
2019-03-02T18:41:57.353Z,18.43
2019-03-02T18:44:27.807Z,20.80
2019-03-02T18:46:56.566Z,20.47
2019-03-02T18:49:29.922Z,22.70
2019-03-02T18:52:02.601Z,22.77
2019-03-02T18:54:31.716Z,24.23
2019-03-02T18:57:00.318Z,22.47
2019-03-02T18:59:28.990Z,23.67
2019-03-02T19:01:57.554Z,23.57
2019-03-02T19:04:28.589Z,21.83
2019-03-02T19:06:59.261Z,21.97
2019-03-02T19:09:32.395Z,20.80
2019-03-02T19:11:58.061Z,19.37
2019-03-02T19:14:26.632Z,21.33
2019-03-02T19:16:55.499Z,22.10
2019-03-02T19:19:24.066Z,23.37
2019-03-02T19:21:52.733Z,19.60
2019-03-02T19:24:21.291Z,18.83
2019-03-02T19:26:50.257Z,16.87
2019-03-02T19:29:18.920Z,18.03
2019-03-02T19:31:47.632Z,18.80
2019-03-02T19:34:16.189Z,18.43
2019-03-02T19:36:45.349Z,16.37
2019-03-02T19:39:16.183Z,16.00
2019-03-02T19:41:45.005Z,16.40
2019-03-02T19:44:13.573Z,16.00
2019-03-02T19:46:42.389Z,16.00
2019-03-02T19:49:10.949Z,15.40
2019-03-02T19:51:39.761Z,17.63
2019-03-02T19:54:08.323Z,16.00
2019-03-02T19:56:38.399Z,14.60
2019-03-02T19:59:06.955Z,16.83
2019-03-02T20:01:35.733Z,16.47
2019-03-02T20:04:05.027Z,16.53
2019-03-02T20:06:34.137Z,17.13
2019-03-02T20:09:03.363Z,18.00
2019-03-02T20:11:32.064Z,16.50
2019-03-02T20:14:00.613Z,17.17
2019-03-02T20:16:29.281Z,18.00
2019-03-02T20:18:58.444Z,19.60
2019-03-02T20:21:27.474Z,17.87
2019-03-02T20:24:01.783Z,18.67
2019-03-02T20:26:30.523Z,16.70
2019-03-02T20:28:59.069Z,19.10
2019-03-02T20:31:28.046Z,18.30
2019-03-02T20:33:56.609Z,19.10
2019-03-02T20:36:25.526Z,20.37
2019-03-02T20:38:54.085Z,19.43
2019-03-02T20:41:22.794Z,19.77
2019-03-02T20:43:51.376Z,21.07
2019-03-02T20:46:20.065Z,20.70
2019-03-02T20:48:48.766Z,21.30
2019-03-02T20:51:17.644Z,21.50
2019-03-02T20:53:46.212Z,21.33
2019-03-02T20:56:14.780Z,21.10
2019-03-02T20:58:43.496Z,20.97
2019-03-02T21:01:12.075Z,63.07
2019-03-02T21:03:40.886Z,20.77
2019-03-02T21:06:09.925Z,22.03
2019-03-02T21:08:38.843Z,21.53
2019-03-02T21:11:07.431Z,20.30
2019-03-02T21:13:36.211Z,22.13
2019-03-02T21:16:06.539Z,23.97
2019-03-02T21:18:35.183Z,20.80
2019-03-02T21:21:03.877Z,23.03
2019-03-02T21:23:32.446Z,21.80
2019-03-02T21:26:02.877Z,21.40
2019-03-02T21:28:31.578Z,22.77
2019-03-02T21:31:00.191Z,21.57
2019-03-02T21:33:28.992Z,23.57
2019-03-02T21:35:57.641Z,21.67
2019-03-02T21:38:26.361Z,21.93
2019-03-02T21:40:54.931Z,23.63
2019-03-02T21:43:23.945Z,22.50
2019-03-02T21:45:53.190Z,26.83
2019-03-02T21:48:21.877Z,23.03
2019-03-02T21:50:53.660Z,22.40
2019-03-02T21:53:22.567Z,23.23
2019-03-02T21:55:51.219Z,23.67
2019-03-02T21:58:22.704Z,22.37
2019-03-02T22:00:50.559Z,24.53
2019-03-02T22:03:19.247Z,24.13
2019-03-02T22:05:47.815Z,23.67
2019-03-02T22:08:16.496Z,23.57
2019-03-02T22:10:57.069Z,24.37
2019-03-02T22:13:26.088Z,24.27
2019-03-02T22:15:54.656Z,24.53
2019-03-02T22:18:23.341Z,24.47
2019-03-02T22:20:52.264Z,23.57
2019-03-02T22:23:21.151Z,24.83
2019-03-02T22:25:49.714Z,23.37
2019-03-02T22:28:18.718Z,26.60
2019-03-02T22:30:47.269Z,24.20
2019-03-02T22:33:16.289Z,25.50
2019-03-02T22:35:44.851Z,25.03
2019-03-02T22:38:13.862Z,23.90
2019-03-02T22:40:42.433Z,22.87
2019-03-02T22:43:11.236Z,25.70
2019-03-02T22:45:39.805Z,25.60
2019-03-02T22:48:08.945Z,24.03
2019-03-02T22:50:37.575Z,26.10
2019-03-02T22:53:06.395Z,24.63
2019-03-02T22:55:35.021Z,25.20
2019-03-02T22:58:03.763Z,26.30
2019-03-02T23:00:38.402Z,25.37
2019-03-02T23:03:06.070Z,26.37
2019-03-02T23:05:34.635Z,25.67
2019-03-02T23:08:03.204Z,24.13
2019-03-02T23:10:32.105Z,26.83
2019-03-02T23:13:00.999Z,26.00
2019-03-02T23:15:29.985Z,26.90
2019-03-02T23:17:58.775Z,25.10
2019-03-02T23:20:27.327Z,25.87
2019-03-02T23:22:55.899Z,28.07
2019-03-02T23:25:24.844Z,26.40
2019-03-02T23:27:53.492Z,26.43
2019-03-02T23:30:26.283Z,24.67
2019-03-02T23:32:55.058Z,26.00
2019-03-02T23:35:24.287Z,25.23
2019-03-02T23:37:52.920Z,25.43
2019-03-02T23:40:24.135Z,24.83
2019-03-02T23:42:52.974Z,23.80
2019-03-02T23:45:21.887Z,24.37
2019-03-02T23:47:50.925Z,25.30
2019-03-02T23:50:19.905Z,24.40
2019-03-02T23:52:48.467Z,24.30
2019-03-02T23:55:17.869Z,23.20
2019-03-02T23:57:46.502Z,24.90
